| time (UTC) | temp C | wind direction | speed KPH | gust KPH | rain 1hr cm | rain 24hr cm | rain mn cm | humidity % | barometer mb |
| 20260507120021 | 13 | 26 | 3.2 | 6.4 | 0.10 | 0.18 | 0.13 | 83 | 1012.5 |
| 20260507114526 | 13 | 30 | 3.2 | 6.4 | 0.10 | 0.18 | 0.13 | 82 | 1012.3 |
| 20260507113020 | 13 | 56 | 3.2 | 4.8 | 0.10 | 0.18 | 0.13 | 82 | 1012.4 |
| 20260507101524 | 15 | 35 | 4.8 | 14.5 | 0.00 | 0.08 | 0.03 | 81 | 1011.5 |
| 20260507100028 | 15 | 360 | 4.8 | 12.9 | 0.00 | 0.08 | 0.03 | 81 | 1011.4 |
| 20260507094513 | 15 | 30 | 6.4 | 19.3 | 0.00 | 0.08 | 0.03 | 80 | 1011.4 |
| 20260507093015 | 15 | 327 | 4.8 | 8.0 | 0.00 | 0.08 | 0.03 | 80 | 1011.5 |
| 20260507091524 | 16 | 331 | 4.8 | 12.9 | 0.00 | 0.08 | 0.03 | 80 | 1011.4 |
| 20260507090035 | 16 | 24 | 4.8 | 22.5 | 0.00 | 0.08 | 0.03 | 79 | 1010.9 |
| 20260507084533 | 17 | 29 | 4.8 | 20.9 | 0.03 | 0.08 | 0.03 | 79 | 1010.7 |
| 20260507083016 | 18 | 10 | 12.9 | 22.5 | 0.03 | 0.08 | 0.03 | 78 | 1010.7 |
| 20260507081520 | 19 | 68 | 0.0 | 0.0 | 0.03 | 0.08 | 0.03 | 81 | 1010.1 |
| 20260507080028 | 20 | 68 | 0.0 | 3.2 | 0.03 | 0.08 | 0.03 | 81 | 1010.2 |
| 20260507074538 | 20 | 11 | 0.0 | 3.2 | 0.00 | 0.05 | 0.00 | 80 | 1010.6 |
| 20260507073026 | 20 | 41 | 0.0 | 3.2 | 0.00 | 0.05 | 0.00 | 79 | 1010.6 |
| 20260507071518 | 20 | 257 | 0.0 | 12.9 | 0.00 | 0.05 | 0.00 | 79 | 1010.2 |
| 20260507070022 | 20 | 155 | 0.0 | 4.8 | 0.00 | 0.05 | 0.00 | 78 | 1009.7 |
| 20260507064532 | 20 | 316 | 0.0 | 3.2 | 0.00 | 0.05 | 0.00 | 77 | 1009.4 |
| 20260507063013 | 20 | 131 | 0.0 | 6.4 | 0.00 | 0.05 | 0.00 | 77 | 1009.1 |
| 20260507061518 | 21 | 155 | 1.6 | 11.3 | 0.00 | 0.05 | 0.00 | 77 | 1009.3 |
| 20260507060020 | 21 | 79 | 1.6 | 9.7 | 0.00 | 0.05 | 0.00 | 77 | 1009.6 |
| 20260507054504 | 21 | 98 | 0.0 | 6.4 | 0.00 | 0.05 | 0.00 | 76 | 1009.9 |
| 20260507053010 | 20 | 247 | 0.0 | 4.8 | 0.00 | 0.05 | 0.00 | 76 | 1010.2 |
| 20260507051519 | 20 | 62 | 0.0 | 3.2 | 0.00 | 0.05 | 0.00 | 77 | 1010.6 |
| 20260507050021 | 20 | 271 | 1.6 | 9.7 | 0.00 | 0.05 | 0.00 | 77 | 1010.8 |
| 20260507044523 | 20 | 67 | 0.0 | 3.2 | 0.00 | 0.05 | 0.00 | 77 | 1010.9 |
| 20260507043008 | 20 | 113 | 0.0 | 3.2 | 0.00 | 0.05 | 0.00 | 77 | 1011.0 |
| 20260507041513 | 20 | 97 | 0.0 | 3.2 | 0.00 | 0.05 | 0.00 | 77 | 1010.9 |
| 20260507040017 | 20 | 352 | 0.0 | 3.2 | 0.00 | 0.05 | 0.00 | 78 | 1010.8 |
| 20260507034534 | 19 | 79 | 0.0 | 3.2 | 0.00 | 0.05 | 0.05 | 78 | 1010.7 |
| 20260507033006 | 19 | 159 | 0.0 | 3.2 | 0.00 | 0.05 | 0.05 | 78 | 1010.8 |
| 20260507031512 | 19 | 281 | 0.0 | 4.8 | 0.00 | 0.05 | 0.05 | 78 | 1010.6 |
| 20260507030018 | 19 | 244 | 0.0 | 3.2 | 0.00 | 0.05 | 0.05 | 78 | 1010.6 |
| 20260507024531 | 19 | 202 | 0.0 | 4.8 | 0.00 | 0.05 | 0.05 | 78 | 1010.7 |
| 20260507023022 | 19 | 253 | 0.0 | 3.2 | 0.00 | 0.05 | 0.05 | 78 | 1011.0 |
| 20260507021508 | 19 | 273 | 0.0 | 3.2 | 0.00 | 0.05 | 0.05 | 78 | 1010.9 |
| 20260507020012 | 19 | 233 | 0.0 | 3.2 | 0.00 | 0.05 | 0.05 | 78 | 1010.9 |
| 20260507014532 | 19 | 190 | 0.0 | 3.2 | 0.00 | 0.05 | 0.05 | 77 | 1010.8 |
| 20260507013020 | 19 | 281 | 0.0 | 3.2 | 0.00 | 0.05 | 0.05 | 77 | 1010.9 |
| 20260507011537 | 20 | 267 | 0.0 | 3.2 | 0.00 | 0.05 | 0.05 | 76 | 1010.7 |
| 20260507010016 | 20 | 184 | 0.0 | 3.2 | 0.00 | 0.05 | 0.05 | 74 | 1011.0 |
| 20260507004517 | 20 | 184 | 0.0 | 0.0 | 0.00 | 0.05 | 0.05 | 74 | 1011.0 |
| 20260507003020 | 21 | 184 | 0.0 | 0.0 | 0.00 | 0.05 | 0.05 | 73 | 1011.0 |
| 20260507001528 | 21 | 184 | 0.0 | 0.0 | 0.00 | 0.05 | 0.05 | 72 | 1010.8 |
| 20260507000026 | 21 | 184 | 0.0 | 3.2 | 0.00 | 0.05 | 0.05 | 71 | 1010.5 |
| 20260506234516 | 22 | 185 | 0.0 | 3.2 | 0.00 | 0.05 | 0.05 | 70 | 1010.5 |
| 20260506233018 | 22 | 182 | 0.0 | 3.2 | 0.00 | 0.05 | 0.05 | 70 | 1010.4 |
| 20260506231525 | 22 | 234 | 0.0 | 3.2 | 0.00 | 0.05 | 0.05 | 69 | 1010.4 |
| 20260506230028 | 22 | 241 | 1.6 | 4.8 | 0.00 | 0.05 | 0.05 | 68 | 1010.3 |
| 20260506224528 | 22 | 288 | 0.0 | 4.8 | 0.00 | 0.05 | 0.05 | 69 | 1010.3 |
| 20260506223018 | 23 | 175 | 0.0 | 8.0 | 0.00 | 0.05 | 0.05 | 68 | 1010.3 |
| 20260506221523 | 23 | 139 | 1.6 | 6.4 | 0.00 | 0.05 | 0.05 | 67 | 1010.5 |
| 20260506220025 | 23 | 140 | 3.2 | 6.4 | 0.00 | 0.05 | 0.05 | 67 | 1010.7 |
| 20260506214527 | 23 | 31 | 0.0 | 9.7 | 0.00 | 0.05 | 0.05 | 67 | 1010.6 |
| 20260506213003 | 22 | 175 | 1.6 | 9.7 | 0.00 | 0.05 | 0.05 | 67 | 1010.6 |
| 20260506211504 | 22 | 276 | 4.8 | 16.1 | 0.00 | 0.05 | 0.05 | 68 | 1010.5 |
| 20260506210006 | 22 | 254 | 3.2 | 11.3 | 0.00 | 0.05 | 0.05 | 68 | 1010.5 |
| 20260506204509 | 22 | 53 | 3.2 | 8.0 | 0.00 | 0.05 | 0.05 | 68 | 1010.1 |
| 20260506203029 | 22 | 157 | 3.2 | 12.9 | 0.00 | 0.05 | 0.05 | 68 | 1010.2 |
| 20260506201502 | 22 | 174 | 1.6 | 4.8 | 0.00 | 0.05 | 0.05 | 70 | 1009.9 |
| 20260506200010 | 21 | 196 | 1.6 | 16.1 | 0.00 | 0.05 | 0.05 | 70 | 1010.1 |
| 20260506194506 | 21 | 205 | 1.6 | 8.0 | 0.00 | 0.05 | 0.05 | 71 | 1010.2 |
| 20260506193011 | 21 | 227 | 3.2 | 12.9 | 0.00 | 0.05 | 0.05 | 72 | 1010.5 |
| 20260506191514 | 21 | 163 | 1.6 | 6.4 | 0.00 | 0.05 | 0.05 | 73 | 1010.9 |
| 20260506190004 | 21 | 254 | 0.0 | 6.4 | 0.00 | 0.05 | 0.05 | 72 | 1011.5 |
| 20260506184516 | 21 | 173 | 1.6 | 11.3 | 0.00 | 0.05 | 0.05 | 71 | 1011.8 |
| 20260506183010 | 21 | 177 | 4.8 | 14.5 | 0.00 | 0.05 | 0.05 | 70 | 1012.0 |
| 20260506181514 | 21 | 196 | 3.2 | 11.3 | 0.00 | 0.05 | 0.05 | 72 | 1012.1 |
| 20260506180032 | 20 | 181 | 1.6 | 14.5 | 0.00 | 0.05 | 0.05 | 71 | 1012.3 |
| 20260506174505 | 20 | 185 | 1.6 | 11.3 | 0.00 | 0.05 | 0.05 | 71 | 1012.2 |
| 20260506173008 | 20 | 196 | 1.6 | 12.9 | 0.00 | 0.05 | 0.05 | 71 | 1012.1 |
| 20260506171532 | 20 | 349 | 4.8 | 14.5 | 0.00 | 0.05 | 0.05 | 71 | 1012.2 |
| 20260506170029 | 19 | 243 | 1.6 | 14.5 | 0.00 | 0.05 | 0.05 | 74 | 1012.3 |
| 20260506164523 | 19 | 179 | 4.8 | 9.7 | 0.00 | 0.05 | 0.05 | 74 | 1012.5 |
| 20260506163008 | 18 | 176 | 4.8 | 14.5 | 0.00 | 0.05 | 0.05 | 75 | 1012.6 |
| 20260506161512 | 18 | 198 | 4.8 | 12.9 | 0.03 | 0.05 | 0.05 | 75 | 1013.2 |
| 20260506160018 | 18 | 186 | 4.8 | 12.9 | 0.05 | 0.05 | 0.05 | 76 | 1013.3 |
| 20260506154521 | 18 | 265 | 1.6 | 8.0 | 0.05 | 0.05 | 0.05 | 75 | 1013.7 |
| 20260506153032 | 18 | 181 | 1.6 | 4.8 | 0.05 | 0.05 | 0.05 | 74 | 1014.1 |
| 20260506151510 | 19 | 186 | 1.6 | 8.0 | 0.03 | 0.03 | 0.03 | 72 | 1014.0 |
| 20260506150014 | 20 | 162 | 3.2 | 8.0 | 0.00 | 0.00 | 0.00 | 71 | 1014.3 |
| 20260506144535 | 20 | 134 | 1.6 | 9.7 | 0.00 | 0.00 | 0.00 | 70 | 1014.2 |
| 20260506143028 | 20 | 226 | 1.6 | 6.4 | 0.00 | 0.00 | 0.00 | 69 | 1013.8 |
| 20260506141506 | 19 | 159 | 1.6 | 8.0 | 0.00 | 0.00 | 0.00 | 69 | 1013.6 |
| 20260506140011 | 19 | 168 | 0.0 | 9.7 | 0.00 | 0.00 | 0.00 | 69 | 1013.7 |
| 20260506134516 | 19 | 258 | 1.6 | 4.8 | 0.00 | 0.00 | 0.00 | 69 | 1013.7 |
| 20260506133028 | 20 | 119 | 1.6 | 11.3 | 0.00 | 0.00 | 0.00 | 69 | 1013.4 |
| 20260506131533 | 20 | 180 | 6.4 | 12.9 | 0.00 | 0.00 | 0.00 | 67 | 1013.7 |
| 20260506130026 | 20 | 137 | 3.2 | 11.3 | 0.00 | 0.00 | 0.00 | 67 | 1013.6 |
| 20260506124526 | 20 | 197 | 4.8 | 16.1 | 0.00 | 0.00 | 0.00 | 67 | 1013.4 |
| 20260506123004 | 20 | 146 | 4.8 | 24.1 | 0.00 | 0.00 | 0.00 | 67 | 1013.5 |
| 20260506121521 | 19 | 194 | 4.8 | 9.7 | 0.00 | 0.00 | 0.00 | 69 | 1013.7 |